ホノルル の空港の天気 - METARとTAF

ホノルル国際空港 ( PHNL / HNL ) - アメリカ ハワイ州ホノルル
飛行場実況気象(Metar)
観測時間04/19 06:53 HST (04/19 16:53 UTC)
風向・風速北北東 4m/s
視程10km以上
天気現象
少しの雲 雲底高度 760m
全天の4割程度の雲 雲底高度 1370m
全天を覆う雲 雲底高度 5490m
気温23.9℃
湿度74%
気圧1017hPa
METARPHNL 191653Z 03008KT 10SM FEW025 SCT045 OVC180 24/19 A3004 RMK AO2 SLP170 T02390189
過去の天気等 Google飛行場航空写真 Wunderground天気予報

過去48時間のMETAR

飛行場予報(TAF)
発表時間: 4/19 05:05 HST (4/19 15:05 UTC)
予報対象時間: 19日5時 HST ~ 20日8時 HST
風向・風速東北東 5m/s
視程10km以上
天気現象周辺でしゅう雨
全天の4割程度の雲 雲底高度 760m
全天の4割程度の雲 雲底高度 1,220m
全天の8割程度の雲 雲底高度 1,830m
19日10時 HST から
風向・風速東北東 8m/s 瞬間風速 12m/s
視程10km以上
天気現象周辺でしゅう雨
全天の4割程度の雲 雲底高度 760m
全天の8割程度の雲 雲底高度 1,520m
19日19時 HST から
風向・風速東北東 5m/s
視程10km以上
天気現象周辺でしゅう雨
全天の4割程度の雲 雲底高度 760m
全天の8割程度の雲 雲底高度 1,520m
20日0時 HST から
風向・風速東北東 4m/s
視程10km以上
天気現象弱いしゅう雨
全天の4割程度の雲 雲底高度 760m
全天の8割程度の雲 雲底高度 1,220m
PHNL 191505Z 1915/2018 06010KT P6SM VCSH SCT025 SCT040 BKN060
FM192000 06015G23KT P6SM VCSH SCT025 BKN050
FM200500 06009KT P6SM VCSH SCT025 BKN050
FM201000 06008KT 6SM -SHRA SCT025 BKN040